Wetterdaten: Woche 04.07.05 - 10.07.05 (KW27)
Datum Zeit Temperatur Luftfeuchte Luftdruck Niederschlag Wind Richtung Sonne Solar Taupunkt Windchill
04.07.2005 00:00 17.1 C 87 % 1014.1 hPa 0.0 l/m 0.0 km/h (0 Bft) N 0.00 h 0 W/m 14.8 C 17.1 C
04.07.2005 01:00 16.2 C 91 % 1013.7 hPa 0.0 l/m 0.3 km/h (0 Bft) O-SO 0.00 h 0 W/m 14.8 C 16.2 C
04.07.2005 02:00 15.1 C 96 % 1013.4 hPa 0.0 l/m 1.1 km/h (1 Bft) O-SO 0.00 h 0 W/m 14.5 C 15.1 C
04.07.2005 03:00 14.5 C 99 % 1013.2 hPa 0.0 l/m 0.1 km/h (0 Bft) O-SO 0.00 h 0 W/m 14.4 C 14.5 C
04.07.2005 04:00 14.2 C 100 % 1012.5 hPa 0.0 l/m 0.7 km/h (0 Bft) O-SO 0.00 h 0 W/m 14.1 C 14.2 C
04.07.2005 05:00 14.0 C 100 % 1012.0 hPa 0.0 l/m 0.7 km/h (0 Bft) O-SO 0.13 h 13 W/m 13.9 C 14.0 C
04.07.2005 06:00 14.7 C 98 % 1011.7 hPa 0.0 l/m 0.0 km/h (0 Bft) N 0.00 h 42 W/m 14.3 C 14.7 C
04.07.2005 07:00 16.3 C 92 % 1010.9 hPa 0.0 l/m 0.3 km/h (0 Bft) O-SO 0.90 h 255 W/m 14.9 C 16.3 C
04.07.2005 08:00 18.4 C 81 % 1009.8 hPa 0.0 l/m 1.4 km/h (1 Bft) W 1.00 h 421 W/m 15.1 C 18.4 C
04.07.2005 09:00 20.7 C 71 % 1009.5 hPa 0.0 l/m 2.5 km/h (1 Bft) W-NW 1.00 h 564 W/m 15.3 C 20.7 C
04.07.2005 10:00 22.5 C 70 % 1009.0 hPa 0.3 l/m 1.2 km/h (1 Bft) W-NW 0.70 h 493 W/m 16.8 C 22.5 C
04.07.2005 11:00 23.8 C 67 % 1008.1 hPa 0.0 l/m 1.5 km/h (1 Bft) W-NW 0.73 h 555 W/m 17.4 C 23.8 C
04.07.2005 12:00 26.3 C 58 % 1007.5 hPa 0.0 l/m 3.0 km/h (1 Bft) W-NW 0.80 h 669 W/m 17.4 C 26.3 C
04.07.2005 13:00 23.8 C 64 % 1007.9 hPa 0.6 l/m 23.5 km/h (4 Bft) W-NW 0.17 h 189 W/m 16.2 C 23.8 C
04.07.2005 14:00 19.7 C 88 % 1009.7 hPa 0.0 l/m 26.2 km/h (4 Bft) W-NW 0.00 h 45 W/m 17.6 C 19.7 C
04.07.2005 15:00 20.0 C 88 % 1010.7 hPa 0.3 l/m 3.7 km/h (1 Bft) SO 0.00 h 111 W/m 18.0 C 20.0 C
04.07.2005 16:00 20.6 C 86 % 1010.3 hPa 0.0 l/m 3.7 km/h (1 Bft) SO 0.13 h 210 W/m 18.3 C 20.6 C
04.07.2005 17:00 19.0 C 90 % 1010.5 hPa 5.5 l/m 21.0 km/h (4 Bft) W-NW 0.00 h 107 W/m 17.3 C 19.0 C
04.07.2005 18:00 16.7 C 90 % 1012.1 hPa 0.0 l/m 29.2 km/h (5 Bft) NW 0.00 h 87 W/m 15.1 C 16.7 C
04.07.2005 19:00 16.5 C 85 % 1012.1 hPa 0.0 l/m 21.8 km/h (4 Bft) W-NW 0.00 h 79 W/m 14.0 C 16.5 C
04.07.2005 20:00 16.4 C 82 % 1012.6 hPa 0.0 l/m 17.7 km/h (3 Bft) W-NW 0.00 h 36 W/m 13.4 C 16.4 C
04.07.2005 21:00 16.3 C 82 % 1013.5 hPa 0.0 l/m 12.4 km/h (3 Bft) W-NW 0.00 h 5 W/m 13.3 C 16.3 C
04.07.2005 22:00 16.0 C 79 % 1014.3 hPa 0.0 l/m 13.3 km/h (3 Bft) W-NW 0.00 h 0 W/m 12.4 C 16.0 C
04.07.2005 23:00 14.5 C 88 % 1014.7 hPa 0.6 l/m 0.3 km/h (0 Bft) W-NW 0.00 h 0 W/m 12.5 C 14.5 C
05.07.2005 00:00 13.6 C 96 % 1015.6 hPa 0.0 l/m 4.4 km/h (1 Bft) SO 0.00 h 0 W/m 12.9 C 13.6 C
05.07.2005 01:00 13.4 C 97 % 1015.7 hPa 0.0 l/m 0.9 km/h (0 Bft) SO 0.00 h 0 W/m 12.9 C 13.4 C
05.07.2005 02:00 12.9 C 99 % 1015.7 hPa 0.0 l/m 0.0 km/h (0 Bft) N 0.00 h 0 W/m 12.8 C 12.9 C
05.07.2005 03:00 12.8 C 100 % 1015.8 hPa 0.0 l/m 0.0 km/h (0 Bft) N 0.00 h 0 W/m 12.7 C 12.8 C
05.07.2005 04:00 12.6 C 100 % 1015.8 hPa 0.0 l/m 0.0 km/h (0 Bft) N 0.00 h 0 W/m 12.6 C 12.6 C
05.07.2005 05:00 12.0 C 100 % 1015.9 hPa 0.0 l/m 0.0 km/h (0 Bft) N 0.00 h 4 W/m 12.0 C 12.0 C
05.07.2005 06:00 12.5 C 100 % 1015.8 hPa 0.0 l/m 0.0 km/h (0 Bft) N 0.00 h 33 W/m 12.4 C 12.5 C
05.07.2005 07:00 13.5 C 94 % 1015.7 hPa 0.0 l/m 0.0 km/h (0 Bft) N 0.00 h 100 W/m 12.6 C 13.5 C
05.07.2005 08:00 14.4 C 87 % 1015.5 hPa 0.0 l/m 1.0 km/h (0 Bft) W-NW 0.38 h 300 W/m 12.3 C 14.4 C
05.07.2005 09:00 15.3 C 74 % 1015.4 hPa 0.0 l/m 8.8 km/h (2 Bft) W-NW 0.63 h 365 W/m 10.7 C 15.3 C
05.07.2005 10:00 16.4 C 67 % 1015.3 hPa 0.0 l/m 19.3 km/h (3 Bft) W-NW 0.92 h 600 W/m 10.2 C 16.4 C
05.07.2005 11:00 17.9 C 53 % 1015.1 hPa 0.0 l/m 16.7 km/h (3 Bft) NW 0.77 h 722 W/m 8.3 C 17.9 C
05.07.2005 12:00 18.5 C 49 % 1015.0 hPa 0.0 l/m 21.1 km/h (4 Bft) W-NW 0.53 h 588 W/m 7.5 C 18.5 C
05.07.2005 13:00 16.1 C 57 % 1015.7 hPa 0.3 l/m 15.4 km/h (3 Bft) W-NW 0.53 h 614 W/m 7.5 C 16.1 C
05.07.2005 14:00 19.3 C 43 % 1014.9 hPa 0.0 l/m 15.5 km/h (3 Bft) W-NW 1.00 h 822 W/m 6.2 C 19.3 C
05.07.2005 15:00 20.3 C 40 % 1014.8 hPa 0.0 l/m 17.9 km/h (3 Bft) W-NW 0.77 h 688 W/m 6.1 C 20.3 C
05.07.2005 16:00 20.3 C 39 % 1014.8 hPa 0.0 l/m 23.3 km/h (4 Bft) W-NW 0.72 h 595 W/m 5.8 C 20.3 C
05.07.2005 17:00 21.0 C 35 % 1014.7 hPa 0.0 l/m 17.7 km/h (3 Bft) W-NW 0.93 h 612 W/m 4.7 C 21.0 C
05.07.2005 18:00 21.3 C 35 % 1014.6 hPa 0.0 l/m 18.9 km/h (3 Bft) W-NW 1.00 h 478 W/m 5.1 C 21.3 C
05.07.2005 19:00 20.7 C 38 % 1014.7 hPa 0.0 l/m 16.7 km/h (3 Bft) W-NW 0.98 h 314 W/m 5.9 C 20.7 C
05.07.2005 20:00 19.1 C 43 % 1014.9 hPa 0.0 l/m 13.5 km/h (3 Bft) W-NW 1.00 h 130 W/m 6.3 C 19.1 C
05.07.2005 21:00 16.5 C 62 % 1015.5 hPa 0.0 l/m 0.7 km/h (0 Bft) S-SW 0.25 h 22 W/m 9.2 C 16.5 C
05.07.2005 22:00 13.4 C 82 % 1016.7 hPa 0.0 l/m 0.0 km/h (0 Bft) N 0.00 h 0 W/m 10.4 C 13.4 C
05.07.2005 23:00 11.9 C 91 % 1016.9 hPa 0.0 l/m 0.0 km/h (0 Bft) N 0.00 h 0 W/m 10.4 C 11.9 C
06.07.2005 00:00 10.4 C 95 % 1017.1 hPa 0.0 l/m 0.0 km/h (0 Bft) N 0.00 h 0 W/m 9.7 C 10.4 C
06.07.2005 01:00 9.5 C 98 % 1017.2 hPa 0.0 l/m 0.0 km/h (0 Bft) N 0.00 h 0 W/m 9.2 C 9.5 C
06.07.2005 02:00 8.7 C 100 % 1017.3 hPa 0.0 l/m 0.0 km/h (0 Bft) N 0.00 h 0 W/m 8.7 C 8.7 C
06.07.2005 03:00 8.2 C 100 % 1016.4 hPa 0.0 l/m 0.0 km/h (0 Bft) N 0.00 h 0 W/m 8.2 C 8.2 C
06.07.2005 04:00 8.1 C 100 % 1016.4 hPa 0.0 l/m 0.0 km/h (0 Bft) N 0.00 h 0 W/m 8.1 C 8.1 C
06.07.2005 05:00 7.9 C 100 % 1015.9 hPa 0.0 l/m 0.0 km/h (0 Bft) N 0.07 h 10 W/m 7.9 C 7.9 C
06.07.2005 06:00 9.8 C 97 % 1015.1 hPa 0.0 l/m 0.0 km/h (0 Bft) N 0.00 h 43 W/m 9.3 C 9.8 C
06.07.2005 07:00 10.7 C 94 % 1014.2 hPa 0.0 l/m 0.0 km/h (0 Bft) N 0.07 h 106 W/m 9.8 C 10.7 C
06.07.2005 08:00 12.1 C 90 % 1013.8 hPa 0.0 l/m 0.0 km/h (0 Bft) N 0.13 h 178 W/m 10.5 C 12.1 C
06.07.2005 09:00 14.3 C 80 % 1012.9 hPa 0.0 l/m 3.4 km/h (1 Bft) O-SO 0.47 h 324 W/m 10.8 C 14.3 C
06.07.2005 10:00 16.1 C 69 % 1012.2 hPa 0.0 l/m 7.8 km/h (2 Bft) O-SO 0.27 h 318 W/m 10.3 C 16.1 C
06.07.2005 11:00 16.5 C 69 % 1012.1 hPa 0.0 l/m 7.7 km/h (2 Bft) SW 0.20 h 338 W/m 10.7 C 16.5 C
06.07.2005 12:00 17.7 C 64 % 1011.1 hPa 0.0 l/m 5.7 km/h (1 Bft) O 0.27 h 345 W/m 10.7 C 17.7 C
06.07.2005 13:00 16.3 C 71 % 1011.3 hPa 2.0 l/m 4.6 km/h (1 Bft) SO 0.00 h 83 W/m 10.8 C 16.3 C
06.07.2005 14:00 15.2 C 94 % 1011.4 hPa 2.6 l/m 7.5 km/h (2 Bft) SO 0.57 h 482 W/m 14.2 C 15.2 C
06.07.2005 15:00 16.2 C 90 % 1011.1 hPa 2.9 l/m 3.3 km/h (1 Bft) SO 0.23 h 241 W/m 14.5 C 16.2 C
06.07.2005 16:00 14.5 C 98 % 1011.4 hPa 4.5 l/m 9.2 km/h (2 Bft) O-SO 0.00 h 87 W/m 14.2 C 14.5 C
06.07.2005 17:00 15.5 C 96 % 1011.2 hPa 0.0 l/m 2.2 km/h (1 Bft) W 0.27 h 255 W/m 14.8 C 15.5 C
06.07.2005 18:00 17.0 C 88 % 1011.0 hPa 0.0 l/m 4.5 km/h (1 Bft) W-NW 0.57 h 309 W/m 15.0 C 17.0 C
06.07.2005 19:00 16.0 C 89 % 1011.8 hPa 0.3 l/m 13.8 km/h (3 Bft) W-NW 0.03 h 53 W/m 14.1 C 16.0 C
06.07.2005 20:00 15.5 C 86 % 1012.3 hPa 0.0 l/m 17.8 km/h (3 Bft) W-NW 0.23 h 46 W/m 13.1 C 15.5 C
06.07.2005 21:00 14.5 C 91 % 1013.4 hPa 0.0 l/m 5.3 km/h (1 Bft) SO 0.00 h 7 W/m 12.9 C 14.5 C
06.07.2005 22:00 14.0 C 92 % 1013.5 hPa 0.0 l/m 5.5 km/h (1 Bft) SO 0.00 h 0 W/m 12.7 C 14.0 C
06.07.2005 23:00 13.9 C 94 % 1013.5 hPa 0.0 l/m 4.2 km/h (1 Bft) SO 0.00 h 0 W/m 13.0 C 13.9 C
07.07.2005 00:00 14.4 C 90 % 1013.5 hPa 0.0 l/m 11.3 km/h (2 Bft) W-NW 0.00 h 0 W/m 12.9 C 14.4 C
07.07.2005 01:00 13.7 C 95 % 1013.5 hPa 1.3 l/m 15.2 km/h (3 Bft) W-NW 0.00 h 0 W/m 13.0 C 13.7 C
07.07.2005 02:00 13.2 C 100 % 1013.6 hPa 0.3 l/m 8.5 km/h (2 Bft) W-NW 0.00 h 0 W/m 13.1 C 13.2 C
07.07.2005 03:00 12.8 C 100 % 1013.7 hPa 0.0 l/m 1.9 km/h (1 Bft) O-SO 0.00 h 0 W/m 12.8 C 12.8 C
07.07.2005 04:00 12.9 C 100 % 1012.7 hPa 0.0 l/m 1.6 km/h (1 Bft) O-SO 0.00 h 0 W/m 12.9 C 12.9 C
07.07.2005 05:00 13.1 C 100 % 1012.6 hPa 0.6 l/m 4.1 km/h (1 Bft) NW 0.00 h 1 W/m 13.1 C 13.1 C
07.07.2005 06:00 12.3 C 100 % 1012.7 hPa 0.6 l/m 21.6 km/h (4 Bft) W-NW 0.00 h 8 W/m 12.3 C 12.3 C
07.07.2005 07:00 12.2 C 99 % 1012.8 hPa 0.6 l/m 3.1 km/h (1 Bft) W-NW 0.00 h 20 W/m 12.1 C 12.2 C
07.07.2005 08:00 12.6 C 98 % 1013.7 hPa 0.6 l/m 6.5 km/h (2 Bft) NW 0.00 h 58 W/m 12.3 C 12.6 C
07.07.2005 09:00 12.6 C 94 % 1014.3 hPa 1.0 l/m 12.1 km/h (2 Bft) W-NW 0.00 h 128 W/m 11.6 C 12.6 C
07.07.2005 10:00 13.2 C 88 % 1013.8 hPa 0.0 l/m 19.1 km/h (3 Bft) W-NW 0.07 h 281 W/m 11.2 C 13.2 C
07.07.2005 11:00 13.7 C 83 % 1014.3 hPa 0.0 l/m 17.8 km/h (3 Bft) W-NW 0.13 h 299 W/m 10.8 C 13.7 C
07.07.2005 12:00 14.4 C 74 % 1014.2 hPa 0.0 l/m 22.1 km/h (4 Bft) W-NW 0.55 h 446 W/m 9.8 C 14.4 C
07.07.2005 13:00 14.4 C 72 % 1014.5 hPa 0.0 l/m 16.4 km/h (3 Bft) W-NW 0.18 h 345 W/m 9.5 C 14.4 C
07.07.2005 14:00 14.5 C 75 % 1014.5 hPa 0.0 l/m 11.8 km/h (2 Bft) W-NW 0.00 h 201 W/m 10.1 C 14.5 C
07.07.2005 15:00 13.4 C 88 % 1014.6 hPa 0.3 l/m 2.7 km/h (1 Bft) W-NW 0.00 h 147 W/m 11.5 C 13.4 C
07.07.2005 16:00 14.5 C 79 % 1014.5 hPa 0.0 l/m 2.8 km/h (1 Bft) W-NW 0.28 h 297 W/m 10.8 C 14.5 C
07.07.2005 17:00 16.5 C 66 % 1014.2 hPa 0.0 l/m 10.3 km/h (2 Bft) SO 0.72 h 477 W/m 10.0 C 16.5 C
07.07.2005 18:00 14.3 C 76 % 1014.5 hPa 0.0 l/m 8.3 km/h (2 Bft) W-NW 0.05 h 106 W/m 10.1 C 14.3 C
07.07.2005 19:00 14.2 C 83 % 1014.5 hPa 0.0 l/m 0.3 km/h (0 Bft) O-SO 0.42 h 147 W/m 11.3 C 14.2 C
07.07.2005 20:00 13.9 C 87 % 1015.4 hPa 0.0 l/m 0.0 km/h (0 Bft) N 0.05 h 40 W/m 11.7 C 13.9 C
07.07.2005 21:00 13.4 C 91 % 1015.7 hPa 0.0 l/m 0.3 km/h (0 Bft) W-SW 0.00 h 4 W/m 11.8 C 13.4 C
07.07.2005 22:00 12.9 C 86 % 1015.7 hPa 0.0 l/m 7.4 km/h (2 Bft) W-NW 0.00 h 0 W/m 10.5 C 12.9 C
07.07.2005 23:00 12.3 C 85 % 1015.8 hPa 0.3 l/m 0.1 km/h (0 Bft) S 0.00 h 0 W/m 9.8 C 12.3 C
08.07.2005 00:00 11.6 C 94 % 1015.9 hPa 0.6 l/m 0.0 km/h (0 Bft) N 0.00 h 0 W/m 10.7 C 11.6 C
08.07.2005 01:00 11.6 C 99 % 1015.9 hPa 0.3 l/m 0.0 km/h (0 Bft) N 0.00 h 0 W/m 11.5 C 11.6 C
08.07.2005 02:00 11.5 C 100 % 1015.3 hPa 0.6 l/m 0.0 km/h (0 Bft) N 0.00 h 0 W/m 11.5 C 11.5 C
08.07.2005 03:00 11.5 C 100 % 1014.9 hPa 0.0 l/m 0.6 km/h (0 Bft) SO 0.00 h 0 W/m 11.5 C 11.5 C
08.07.2005 04:00 11.1 C 100 % 1014.8 hPa 0.0 l/m 2.4 km/h (1 Bft) SO 0.00 h 0 W/m 11.1 C 11.1 C
08.07.2005 05:00 11.5 C 100 % 1014.8 hPa 0.0 l/m 5.4 km/h (1 Bft) SO 0.00 h 3 W/m 11.5 C 11.5 C
08.07.2005 06:00 11.7 C 100 % 1014.9 hPa 0.3 l/m 3.4 km/h (1 Bft) SO 0.00 h 18 W/m 11.7 C 11.7 C
08.07.2005 07:00 12.0 C 99 % 1014.8 hPa 0.3 l/m 1.0 km/h (0 Bft) SO 0.00 h 47 W/m 11.9 C 12.0 C
08.07.2005 08:00 12.5 C 98 % 1015.0 hPa 0.0 l/m 1.1 km/h (0 Bft) O-NO 0.00 h 92 W/m 12.2 C 12.5 C
08.07.2005 09:00 12.9 C 96 % 1015.7 hPa 0.0 l/m 1.3 km/h (1 Bft) SO 0.00 h 117 W/m 12.3 C 12.9 C
08.07.2005 10:00 13.7 C 90 % 1015.6 hPa 0.0 l/m 4.9 km/h (1 Bft) W-NW 0.07 h 221 W/m 12.1 C 13.7 C
08.07.2005 11:00 14.4 C 79 % 1015.5 hPa 0.0 l/m 15.0 km/h (3 Bft) W-NW 0.43 h 372 W/m 10.8 C 14.4 C
08.07.2005 12:00 15.2 C 72 % 1015.4 hPa 0.0 l/m 16.7 km/h (3 Bft) W-NW 0.33 h 382 W/m 10.2 C 15.2 C
08.07.2005 13:00 16.3 C 64 % 1015.3 hPa 0.0 l/m 27.0 km/h (4 Bft) W-NW 0.95 h 656 W/m 9.6 C 16.3 C
08.07.2005 14:00 17.2 C 62 % 1015.2 hPa 0.0 l/m 22.4 km/h (4 Bft) W-NW 0.60 h 608 W/m 9.9 C 17.2 C
08.07.2005 15:00 18.0 C 59 % 1015.1 hPa 0.0 l/m 19.3 km/h (3 Bft) W-NW 0.40 h 497 W/m 9.8 C 18.0 C
08.07.2005 16:00 18.5 C 56 % 1015.0 hPa 0.0 l/m 17.3 km/h (3 Bft) W-NW 0.52 h 517 W/m 9.5 C 18.5 C
08.07.2005 17:00 17.7 C 56 % 1015.1 hPa 0.0 l/m 21.1 km/h (4 Bft) W-NW 0.17 h 267 W/m 8.8 C 17.7 C
08.07.2005 18:00 19.7 C 49 % 1014.8 hPa 0.0 l/m 15.0 km/h (3 Bft) W-NW 1.00 h 504 W/m 8.6 C 19.7 C
08.07.2005 19:00 19.4 C 51 % 1015.3 hPa 0.0 l/m 10.3 km/h (2 Bft) W-NW 0.97 h 278 W/m 9.1 C 19.4 C
08.07.2005 20:00 17.0 C 64 % 1016.2 hPa 0.0 l/m 4.0 km/h (1 Bft) W-NW 0.30 h 63 W/m 10.1 C 17.0 C
08.07.2005 21:00 15.1 C 71 % 1016.7 hPa 0.0 l/m 2.6 km/h (1 Bft) W-NW 0.00 h 8 W/m 9.8 C 15.1 C
08.07.2005 22:00 13.7 C 78 % 1017.7 hPa 0.0 l/m 0.0 km/h (0 Bft) N 0.00 h 0 W/m 9.9 C 13.7 C
08.07.2005 23:00 11.9 C 89 % 1018.0 hPa 0.0 l/m 0.8 km/h (0 Bft) SO 0.00 h 0 W/m 10.1 C 11.9 C
09.07.2005 00:00 10.7 C 95 % 1018.1 hPa 0.0 l/m 2.6 km/h (1 Bft) O-SO 0.00 h 0 W/m 9.9 C 10.7 C
09.07.2005 01:00 11.4 C 99 % 1018.0 hPa 0.0 l/m 0.5 km/h (0 Bft) O-SO 0.00 h 0 W/m 11.2 C 11.4 C
09.07.2005 02:00 11.1 C 98 % 1018.1 hPa 0.0 l/m 0.0 km/h (0 Bft) N 0.00 h 0 W/m 10.9 C 11.1 C
09.07.2005 03:00 10.5 C 99 % 1017.7 hPa 0.0 l/m 0.0 km/h (0 Bft) N 0.00 h 0 W/m 10.3 C 10.5 C
09.07.2005 04:00 10.7 C 100 % 1017.8 hPa 0.0 l/m 0.1 km/h (0 Bft) N 0.00 h 0 W/m 10.7 C 10.7 C
09.07.2005 05:00 9.7 C 100 % 1018.2 hPa 0.0 l/m 0.2 km/h (0 Bft) W 0.03 h 9 W/m 9.7 C 9.7 C
09.07.2005 06:00 9.8 C 99 % 1018.2 hPa 0.0 l/m 0.0 km/h (0 Bft) N 0.00 h 31 W/m 9.6 C 9.8 C
09.07.2005 07:00 10.6 C 92 % 1018.1 hPa 0.0 l/m 1.8 km/h (1 Bft) W-NW 0.42 h 165 W/m 9.4 C 10.6 C
09.07.2005 08:00 12.2 C 86 % 1017.9 hPa 0.0 l/m 0.6 km/h (0 Bft) W-NW 0.98 h 389 W/m 10.0 C 12.2 C
09.07.2005 09:00 14.3 C 79 % 1017.7 hPa 0.0 l/m 2.2 km/h (1 Bft) W-NW 1.00 h 584 W/m 10.7 C 14.3 C
09.07.2005 10:00 17.0 C 68 % 1017.3 hPa 0.0 l/m 5.6 km/h (1 Bft) O-SO 1.00 h 707 W/m 11.1 C 17.0 C
09.07.2005 11:00 19.2 C 60 % 1017.0 hPa 0.0 l/m 10.3 km/h (2 Bft) O-SO 0.98 h 782 W/m 11.1 C 19.2 C
09.07.2005 12:00 20.6 C 53 % 1016.8 hPa 0.0 l/m 14.4 km/h (3 Bft) O-SO 1.00 h 844 W/m 10.7 C 20.6 C
09.07.2005 13:00 21.4 C 50 % 1016.7 hPa 0.0 l/m 12.5 km/h (3 Bft) O-SO 0.90 h 820 W/m 10.6 C 21.4 C
09.07.2005 14:00 22.6 C 45 % 1015.9 hPa 0.0 l/m 15.3 km/h (3 Bft) O-SO 1.00 h 854 W/m 10.1 C 22.6 C
09.07.2005 15:00 23.8 C 42 % 1015.4 hPa 0.0 l/m 16.4 km/h (3 Bft) O-SO 1.00 h 839 W/m 10.2 C 23.8 C
09.07.2005 16:00 24.3 C 37 % 1015.3 hPa 0.0 l/m 9.1 km/h (2 Bft) O-SO 1.00 h 657 W/m 8.5 C 24.3 C
09.07.2005 17:00 24.5 C 36 % 1014.9 hPa 0.0 l/m 8.5 km/h (2 Bft) O-SO 0.93 h 500 W/m 8.4 C 24.5 C
09.07.2005 18:00 23.9 C 35 % 1014.7 hPa 0.0 l/m 12.5 km/h (3 Bft) O-SO 0.80 h 376 W/m 7.3 C 23.9 C
09.07.2005 19:00 21.8 C 46 % 1015.5 hPa 0.0 l/m 0.2 km/h (0 Bft) O-SO 0.00 h 99 W/m 9.7 C 21.8 C
09.07.2005 20:00 20.6 C 50 % 1015.8 hPa 0.0 l/m 0.8 km/h (0 Bft) NO 0.00 h 38 W/m 9.7 C 20.6 C
09.07.2005 21:00 19.1 C 56 % 1016.9 hPa 0.0 l/m 4.3 km/h (1 Bft) NO 0.03 h 10 W/m 10.2 C 19.1 C
09.07.2005 22:00 17.7 C 63 % 1018.0 hPa 0.0 l/m 1.1 km/h (1 Bft) N-NO 0.00 h 0 W/m 10.5 C 17.7 C
09.07.2005 23:00 17.3 C 64 % 1018.3 hPa 0.0 l/m 0.8 km/h (0 Bft) NO 0.00 h 0 W/m 10.3 C 17.3 C
10.07.2005 00:00 16.4 C 68 % 1018.4 hPa 0.0 l/m 0.1 km/h (0 Bft) NO 0.00 h 0 W/m 10.6 C 16.4 C
10.07.2005 01:00 16.0 C 68 % 1018.4 hPa 0.0 l/m 2.6 km/h (1 Bft) NO 0.00 h 0 W/m 10.2 C 16.0 C
10.07.2005 02:00 15.5 C 71 % 1018.5 hPa 0.0 l/m 2.0 km/h (1 Bft) O 0.00 h 0 W/m 10.3 C 15.5 C
10.07.2005 03:00 14.0 C 79 % 1018.7 hPa 0.0 l/m 0.1 km/h (0 Bft) N-NO 0.00 h 0 W/m 10.4 C 14.0 C
10.07.2005 04:00 13.9 C 79 % 1018.7 hPa 0.0 l/m 0.0 km/h (0 Bft) N 0.00 h 0 W/m 10.4 C 13.9 C
10.07.2005 05:00 12.4 C 89 % 1018.9 hPa 0.0 l/m 0.0 km/h (0 Bft) N 0.03 h 9 W/m 10.6 C 12.4 C
10.07.2005 06:00 12.6 C 91 % 1018.9 hPa 0.0 l/m 0.0 km/h (0 Bft) N 0.00 h 40 W/m 11.2 C 12.6 C
10.07.2005 07:00 13.9 C 86 % 1019.6 hPa 0.0 l/m 0.0 km/h (0 Bft) N 0.90 h 242 W/m 11.7 C 13.9 C
10.07.2005 08:00 16.0 C 78 % 1019.5 hPa 0.0 l/m 0.0 km/h (0 Bft) N 1.00 h 397 W/m 12.1 C 16.0 C
10.07.2005 09:00 18.5 C 67 % 1019.2 hPa 0.0 l/m 0.7 km/h (0 Bft) NO 0.87 h 480 W/m 12.3 C 18.5 C
10.07.2005 10:00 20.8 C 59 % 1018.9 hPa 0.0 l/m 6.4 km/h (2 Bft) O-NO 0.83 h 550 W/m 12.4 C 20.8 C
10.07.2005 11:00 20.4 C 57 % 1018.9 hPa 0.0 l/m 2.3 km/h (1 Bft) O 0.03 h 178 W/m 11.6 C 20.4 C
10.07.2005 12:00 20.2 C 60 % 1018.9 hPa 0.0 l/m 3.3 km/h (1 Bft) O-SO 0.00 h 168 W/m 12.1 C 20.2 C
10.07.2005 13:00 20.9 C 58 % 1019.2 hPa 0.0 l/m 9.9 km/h (2 Bft) O-SO 0.30 h 302 W/m 12.4 C 20.9 C
10.07.2005 14:00 18.9 C 75 % 1020.1 hPa 0.0 l/m 5.6 km/h (1 Bft) O-SO 0.00 h 246 W/m 14.5 C 18.9 C
10.07.2005 15:00 18.8 C 76 % 1020.2 hPa 0.0 l/m 5.6 km/h (1 Bft) O-SO 0.00 h 146 W/m 14.5 C 18.8 C
10.07.2005 16:00 19.0 C 77 % 1020.1 hPa 0.0 l/m 6.0 km/h (2 Bft) O-SO 0.00 h 176 W/m 14.8 C 19.0 C
10.07.2005 17:00 18.9 C 79 % 1020.1 hPa 0.0 l/m 4.5 km/h (1 Bft) O-SO 0.00 h 115 W/m 15.1 C 18.9 C
10.07.2005 18:00 18.9 C 80 % 1020.1 hPa 0.0 l/m 8.2 km/h (2 Bft) O-SO 0.23 h 173 W/m 15.3 C 18.9 C
10.07.2005 19:00 17.5 C 91 % 1020.9 hPa 10.4 l/m 0.6 km/h (0 Bft) O-SO 0.00 h 21 W/m 16.1 C 17.5 C
10.07.2005 20:00 16.7 C 99 % 1021.5 hPa 1.0 l/m 0.0 km/h (0 Bft) N 0.00 h 6 W/m 16.6 C 16.7 C
10.07.2005 21:00 15.8 C 98 % 1021.6 hPa 0.0 l/m 1.5 km/h (1 Bft) N-NO 0.00 h 5 W/m 15.5 C 15.8 C
10.07.2005 22:00 15.3 C 100 % 1022.1 hPa 3.3 l/m 1.3 km/h (1 Bft) O-SO 0.00 h 0 W/m 15.3 C 15.3 C
10.07.2005 23:00 15.7 C 100 % 1023.3 hPa 3.6 l/m 0.6 km/h (0 Bft) NO 0.00 h 0 W/m 15.7 C 15.7 C
Min-Datum _ 06.07.05 09.07.05 04.07.05 - 04.07.05 - - - 05.07.05 06.07.05
_ Min-Zeit 05:31 17:35 13:05 - 00:01 - - - 17:15 05:31
Minimum _ 7.6 C 30 % 1006.5 hPa - 0.0 km/h (0 Bft) - - - 3.3 C 7.6 C
Max-Datum _ 04.07.05 04.07.05 10.07.05 10.07.05 04.07.05 - 05.07.05 05.07.05 04.07.05 04.07.05
_ Max-Zeit 13:05 03:39 23:53 19:35 13:41 - 09:02 12:47 12:19 13:05
Maximum _ 28.2 C 100 % 1023.7 hPa 10.4 l/m 69.9 km/h
W-NW (8 Bft)
- 0.05 h 1022 W/m 19.0 C 28.2 C
Durchschnitt _ 15.6 C 80 % 1015.3 hPa #46.5 l/m 6.4 km/h (2 Bft) W-NW #42:49 h 275 W/m 11.6 C 15.6 C

Durchschnitt Minimum Temp.15.0 C
Durchschnitt Maximum Temp.16.3 C
© Kaiko 2005